Time;durP1;ratioP1;P1;durP2;ratioP2;P2;SDS_P1;SDS_P2;PMS_P1;PMS_P2;Temp;Humidity;BMP_temperature;BMP_pressure;BME280_temperature;BME280_humidity;BME280_pressure;Samples;Min_cycle;Max_cycle;Signal;HPM_P1;HPM_P2
2023/02/28 00:00:38;;;;;;;;;;;10.10;73.70;;;;;;4998391;28;92459;-37
2023/02/28 00:03:04;;;;;;;;;;;10.10;73.70;;;;;;4998664;28;93703;-38
2023/02/28 00:05:30;;;;;;;;;;;10.00;73.80;;;;;;4997811;28;93102;-38
2023/02/28 00:07:55;;;;;;;;;;;10.00;73.70;;;;;;4998287;28;92060;-38
2023/02/28 00:10:25;;;;;;;;;;;10.00;73.70;;;;;;4998601;28;93943;-38
2023/02/28 00:12:51;;;;;;;;;;;10.00;73.90;;;;;;4999394;28;93061;-38
2023/02/28 00:15:17;;;;;;;;;;;10.00;73.70;;;;;;5001978;28;92171;-38
2023/02/28 00:17:42;;;;;;;;;;;10.00;73.70;;;;;;5004441;28;93897;-38
2023/02/28 00:20:09;;;;;;;;;;;10.00;73.80;;;;;;5001186;28;93098;-38
2023/02/28 00:22:36;;;;;;;;;;;10.00;73.90;;;;;;5001736;28;94758;-38
2023/02/28 00:25:01;;;;;;;;;;;10.00;73.90;;;;;;5001467;28;93330;-38
2023/02/28 00:27:27;;;;;;;;;;;10.00;73.90;;;;;;5001886;28;92126;-38
2023/02/28 00:29:53;;;;;;;;;;;9.90;73.80;;;;;;5001024;28;93935;-38
2023/02/28 00:32:19;;;;;;;;;;;9.90;73.90;;;;;;5001025;28;94519;-38
2023/02/28 00:34:45;;;;;;;;;;;9.90;74.00;;;;;;5001554;28;92228;-39
2023/02/28 00:37:11;;;;;;;;;;;9.90;74.00;;;;;;5002164;28;94253;-38
2023/02/28 00:39:37;;;;;;;;;;;9.90;74.00;;;;;;5004058;28;94405;-38
2023/02/28 00:42:03;;;;;;;;;;;9.90;74.00;;;;;;5001550;28;94502;-38
2023/02/28 00:44:29;;;;;;;;;;;9.90;74.00;;;;;;5000029;28;95630;-38
2023/02/28 00:46:56;;;;;;;;;;;9.90;74.00;;;;;;5001521;28;92191;-38
2023/02/28 00:49:22;;;;;;;;;;;9.90;73.90;;;;;;5001469;28;93863;-38
2023/02/28 00:51:47;;;;;;;;;;;9.90;74.00;;;;;;5000735;28;93484;-38
2023/02/28 00:54:13;;;;;;;;;;;9.80;74.00;;;;;;5001203;28;92243;-38
2023/02/28 00:56:39;;;;;;;;;;;9.80;73.90;;;;;;5001369;28;92842;-39
2023/02/28 00:59:04;;;;;;;;;;;9.80;73.90;;;;;;5000198;28;94525;-38
2023/02/28 01:01:30;;;;;;;;;;;9.90;74.00;;;;;;5004754;28;91506;-38
2023/02/28 01:03:55;;;;;;;;;;;9.80;73.90;;;;;;5000847;28;93126;-38
2023/02/28 01:06:21;;;;;;;;;;;9.80;73.80;;;;;;5000813;28;92199;-38
2023/02/28 01:08:46;;;;;;;;;;;9.80;74.00;;;;;;5000590;28;94100;-38
2023/02/28 01:11:12;;;;;;;;;;;9.80;73.90;;;;;;5000739;28;92320;-38
2023/02/28 01:13:38;;;;;;;;;;;9.80;73.90;;;;;;5000898;28;92290;-38
2023/02/28 01:16:03;;;;;;;;;;;9.80;73.80;;;;;;5000902;28;94268;-38
2023/02/28 01:18:30;;;;;;;;;;;9.80;73.90;;;;;;5000304;28;94755;-38
2023/02/28 01:20:56;;;;;;;;;;;9.80;74.00;;;;;;5001059;28;92234;-38
2023/02/28 01:23:23;;;;;;;;;;;9.80;73.90;;;;;;5003354;28;94292;-38
2023/02/28 01:25:49;;;;;;;;;;;9.80;74.00;;;;;;5000148;28;92518;-38
2023/02/28 01:28:14;;;;;;;;;;;9.80;74.00;;;;;;5000635;28;92067;-38
2023/02/28 01:30:40;;;;;;;;;;;9.70;74.00;;;;;;4999958;28;94062;-38
2023/02/28 01:33:05;;;;;;;;;;;9.70;74.00;;;;;;4999742;28;93041;-38
2023/02/28 01:35:34;;;;;;;;;;;9.70;74.00;;;;;;5000550;28;95059;-38
2023/02/28 01:38:00;;;;;;;;;;;9.70;74.00;;;;;;5000096;28;92869;-39
2023/02/28 01:40:25;;;;;;;;;;;9.70;74.10;;;;;;5000817;28;92154;-38
2023/02/28 01:42:51;;;;;;;;;;;9.70;74.10;;;;;;5002813;28;93824;-38
2023/02/28 01:45:22;;;;;;;;;;;9.70;74.20;;;;;;5000596;28;92203;-38
2023/02/28 01:47:49;;;;;;;;;;;9.60;74.10;;;;;;5000505;28;94023;-38
2023/02/28 01:50:17;;;;;;;;;;;9.70;74.20;;;;;;5000266;28;93608;-38
2023/02/28 01:52:44;;;;;;;;;;;9.60;74.30;;;;;;5000355;28;92134;-38
2023/02/28 01:55:10;;;;;;;;;;;9.60;74.20;;;;;;5000297;28;92564;-38
2023/02/28 01:57:46;;;;;;;;;;;9.60;74.20;;;;;;4999021;28;95221;-38
2023/02/28 02:00:15;;;;;;;;;;;9.60;74.30;;;;;;5000337;28;92477;-38
2023/02/28 02:02:45;;;;;;;;;;;9.60;74.20;;;;;;5000071;28;93779;-38
2023/02/28 02:05:13;;;;;;;;;;;9.60;74.20;;;;;;5002647;28;94461;-39
2023/02/28 02:07:40;;;;;;;;;;;9.60;74.10;;;;;;4999626;28;93696;-38
2023/02/28 02:10:11;;;;;;;;;;;9.60;74.10;;;;;;4999426;28;94475;-38
2023/02/28 02:12:55;;;;;;;;;;;9.60;74.20;;;;;;4999962;28;92515;-38
2023/02/28 02:15:24;;;;;;;;;;;9.60;74.30;;;;;;5000565;28;93799;-38
2023/02/28 02:17:52;;;;;;;;;;;9.60;74.20;;;;;;4999419;28;94656;-38
2023/02/28 02:20:36;;;;;;;;;;;9.60;74.20;;;;;;4999777;28;92119;-38
2023/02/28 02:23:13;;;;;;;;;;;9.60;74.20;;;;;;4999306;28;93643;-38
2023/02/28 02:26:03;;;;;;;;;;;9.50;74.20;;;;;;4999429;28;93036;-38
2023/02/28 02:28:32;;;;;;;;;;;9.50;74.20;;;;;;5003076;28;92053;-38
2023/02/28 02:31:06;;;;;;;;;;;9.50;74.20;;;;;;4999231;28;95138;-39
2023/02/28 02:33:37;;;;;;;;;;;9.50;74.20;;;;;;4999842;28;92232;-38
2023/02/28 02:36:02;;;;;;;;;;;9.60;74.20;;;;;;4999416;28;93585;-38
2023/02/28 02:38:30;;;;;;;;;;;9.50;74.20;;;;;;4999109;28;95045;-38
2023/02/28 02:41:02;;;;;;;;;;;9.50;74.20;;;;;;5000171;28;91340;-38
2023/02/28 02:43:40;;;;;;;;;;;9.50;74.20;;;;;;4998386;28;94908;-38
2023/02/28 02:46:19;;;;;;;;;;;9.50;74.20;;;;;;4999144;28;94399;-38
2023/02/28 02:48:45;;;;;;;;;;;9.50;74.30;;;;;;4999245;28;93432;-38
2023/02/28 02:51:14;;;;;;;;;;;9.50;74.20;;;;;;5002136;28;94814;-38
2023/02/28 02:54:03;;;;;;;;;;;9.50;74.30;;;;;;4999405;28;92179;-38
2023/02/28 02:56:31;;;;;;;;;;;9.40;74.50;;;;;;4993424;28;93898;-38
2023/02/28 02:59:00;;;;;;;;;;;9.40;74.30;;;;;;4998932;28;93621;-38
2023/02/28 03:01:27;;;;;;;;;;;9.40;74.40;;;;;;4999462;28;92550;-38
2023/02/28 03:04:02;;;;;;;;;;;9.40;74.40;;;;;;4999291;28;93792;-38
2023/02/28 03:06:27;;;;;;;;;;;9.40;74.40;;;;;;4999012;28;92347;-38
2023/02/28 03:08:53;;;;;;;;;;;9.40;74.40;;;;;;4999065;28;92123;-38
2023/02/28 03:11:20;;;;;;;;;;;9.40;74.50;;;;;;4999199;28;93599;-38
2023/02/28 03:13:56;;;;;;;;;;;9.40;74.40;;;;;;5001102;28;95348;-38
2023/02/28 03:16:36;;;;;;;;;;;9.40;74.50;;;;;;4999405;28;93447;-38
2023/02/28 03:19:20;;;;;;;;;;;9.40;74.50;;;;;;4998488;28;94520;-39
2023/02/28 03:21:46;;;;;;;;;;;9.40;74.60;;;;;;4999082;28;92091;-38
2023/02/28 03:24:15;;;;;;;;;;;9.40;74.50;;;;;;4998919;28;93623;-38
2023/02/28 03:26:44;;;;;;;;;;;9.40;74.50;;;;;;4998421;28;95174;-38
2023/02/28 03:29:17;;;;;;;;;;;9.30;74.50;;;;;;4998864;28;92109;-38
2023/02/28 03:31:53;;;;;;;;;;;9.30;74.70;;;;;;4999202;28;93866;-38
2023/02/28 03:34:18;;;;;;;;;;;9.30;74.50;;;;;;4998232;28;94287;-38
2023/02/28 03:36:46;;;;;;;;;;;9.30;74.50;;;;;;5001816;28;92089;-38
2023/02/28 03:39:30;;;;;;;;;;;9.30;74.50;;;;;;4997681;28;93208;-38
2023/02/28 03:42:00;;;;;;;;;;;9.30;74.50;;;;;;4998864;28;92061;-38
2023/02/28 03:44:29;;;;;;;;;;;9.20;74.50;;;;;;4998931;28;92303;-38
2023/02/28 03:47:00;;;;;;;;;;;9.20;74.70;;;;;;4998214;28;96804;-38
2023/02/28 03:49:32;;;;;;;;;;;9.20;74.60;;;;;;5001942;28;92347;-38
2023/02/28 03:51:59;;;;;;;;;;;9.20;74.60;;;;;;5002310;28;93594;-38
2023/02/28 03:54:28;;;;;;;;;;;9.20;74.60;;;;;;5001567;28;94683;-38
2023/02/28 03:57:07;;;;;;;;;;;9.20;74.50;;;;;;5005640;28;91488;-38
2023/02/28 03:59:34;;;;;;;;;;;9.20;75.10;;;;;;5001693;28;93980;-38
2023/02/28 04:02:00;;;;;;;;;;;9.20;74.50;;;;;;5002266;28;92282;-38
2023/02/28 04:04:25;;;;;;;;;;;9.20;74.60;;;;;;5001457;28;93713;-38
2023/02/28 04:07:00;;;;;;;;;;;9.20;74.60;;;;;;5001542;28;92506;-38
2023/02/28 04:09:25;;;;;;;;;;;9.20;74.80;;;;;;5002271;28;92407;-38
2023/02/28 04:11:51;;;;;;;;;;;9.20;74.60;;;;;;5002034;28;93768;-38
2023/02/28 04:14:17;;;;;;;;;;;9.20;74.80;;;;;;5001381;28;94663;-38
2023/02/28 04:16:43;;;;;;;;;;;9.20;74.80;;;;;;5002039;28;92594;-38
2023/02/28 04:19:10;;;;;;;;;;;9.10;74.80;;;;;;5004334;28;93951;-38
2023/02/28 04:21:36;;;;;;;;;;;9.20;74.80;;;;;;5002606;28;91367;-38
2023/02/28 04:24:02;;;;;;;;;;;9.20;74.80;;;;;;5001434;28;93208;-38
2023/02/28 04:26:31;;;;;;;;;;;9.10;74.70;;;;;;5001174;28;94442;-38
2023/02/28 04:28:56;;;;;;;;;;;9.10;74.80;;;;;;5000938;28;93141;-38
2023/02/28 04:31:22;;;;;;;;;;;9.10;74.80;;;;;;5001434;28;94835;-38
2023/02/28 04:33:47;;;;;;;;;;;9.10;74.80;;;;;;5001013;28;94453;-38
2023/02/28 04:36:14;;;;;;;;;;;9.10;74.90;;;;;;5001620;28;92190;-38
2023/02/28 04:38:40;;;;;;;;;;;9.10;74.80;;;;;;5001367;28;93592;-38
2023/02/28 04:41:05;;;;;;;;;;;9.10;74.80;;;;;;5004062;28;94537;-38
2023/02/28 04:43:31;;;;;;;;;;;9.10;74.80;;;;;;5001393;28;92635;-38
2023/02/28 04:45:58;;;;;;;;;;;9.10;74.80;;;;;;5001461;28;93749;-38
2023/02/28 04:48:24;;;;;;;;;;;9.00;74.90;;;;;;5001359;28;92178;-38
2023/02/28 04:50:50;;;;;;;;;;;9.00;74.90;;;;;;5001501;28;93663;-38
2023/02/28 04:53:16;;;;;;;;;;;9.00;75.00;;;;;;4999929;28;95453;-38
2023/02/28 04:55:41;;;;;;;;;;;9.00;75.10;;;;;;5001359;28;92309;-38
2023/02/28 04:58:07;;;;;;;;;;;9.00;75.00;;;;;;5001709;28;93596;-38
2023/02/28 05:00:32;;;;;;;;;;;9.00;75.10;;;;;;5000502;28;93405;-38
2023/02/28 05:02:57;;;;;;;;;;;9.00;75.00;;;;;;5004349;28;92178;-38
2023/02/28 05:05:23;;;;;;;;;;;9.00;75.10;;;;;;5000914;28;92297;-38
2023/02/28 05:07:49;;;;;;;;;;;9.00;74.90;;;;;;5000655;28;92252;-38
2023/02/28 05:10:14;;;;;;;;;;;9.00;74.90;;;;;;5001477;28;93764;-38
2023/02/28 05:12:40;;;;;;;;;;;9.00;74.90;;;;;;5000563;28;94491;-38
2023/02/28 05:15:05;;;;;;;;;;;9.00;74.80;;;;;;5000887;28;92211;-37
2023/02/28 05:17:31;;;;;;;;;;;9.00;74.90;;;;;;5000365;28;94164;-38
2023/02/28 05:19:56;;;;;;;;;;;9.00;74.80;;;;;;5000332;28;94630;-38
2023/02/28 05:22:22;;;;;;;;;;;9.00;74.80;;;;;;5000943;28;92278;-38
2023/02/28 05:24:47;;;;;;;;;;;9.00;74.90;;;;;;5003469;28;93597;-38
2023/02/28 05:27:13;;;;;;;;;;;8.90;74.90;;;;;;5001093;28;92539;-38
2023/02/28 05:29:41;;;;;;;;;;;9.00;75.40;;;;;;5000475;28;93734;-38
2023/02/28 05:32:16;;;;;;;;;;;8.90;74.90;;;;;;5000097;28;94591;-38
2023/02/28 05:34:41;;;;;;;;;;;8.90;74.90;;;;;;5001092;28;91369;-38
2023/02/28 05:37:11;;;;;;;;;;;8.90;74.90;;;;;;5000472;28;92201;-38
2023/02/28 05:39:36;;;;;;;;;;;9.00;74.90;;;;;;5000159;28;94426;-38
2023/02/28 05:42:02;;;;;;;;;;;8.90;74.80;;;;;;5000012;28;93122;-38
2023/02/28 05:44:27;;;;;;;;;;;8.90;74.90;;;;;;5003130;28;94705;-38
2023/02/28 05:46:53;;;;;;;;;;;8.90;74.80;;;;;;5000602;28;92170;-38
2023/02/28 05:49:18;;;;;;;;;;;8.90;74.80;;;;;;5000400;28;93797;-38
2023/02/28 05:51:44;;;;;;;;;;;8.90;74.70;;;;;;4999880;28;94726;-38
2023/02/28 05:54:09;;;;;;;;;;;8.90;74.80;;;;;;5000421;28;92345;-38
2023/02/28 05:56:35;;;;;;;;;;;8.90;74.80;;;;;;5000455;28;94132;-38
2023/02/28 05:59:01;;;;;;;;;;;8.90;74.80;;;;;;5000396;28;94201;-38
2023/02/28 06:01:34;;;;;;;;;;;8.80;74.80;;;;;;5000227;28;92185;-38
2023/02/28 06:04:00;;;;;;;;;;;8.90;74.80;;;;;;5000150;28;92801;-38
2023/02/28 06:06:26;;;;;;;;;;;8.80;74.80;;;;;;5001704;28;95334;-38
2023/02/28 06:08:51;;;;;;;;;;;8.90;74.80;;;;;;4999964;28;95020;-38
2023/02/28 06:11:17;;;;;;;;;;;8.90;74.80;;;;;;4999065;28;93074;-38
2023/02/28 06:13:42;;;;;;;;;;;8.90;74.80;;;;;;4999953;28;92152;-38
2023/02/28 06:16:10;;;;;;;;;;;8.80;74.80;;;;;;5000270;28;94102;-38
2023/02/28 06:18:35;;;;;;;;;;;8.80;74.80;;;;;;4999569;28;94295;-37
2023/02/28 06:21:01;;;;;;;;;;;8.80;74.80;;;;;;4999903;28;92239;-38
2023/02/28 06:23:27;;;;;;;;;;;8.80;74.80;;;;;;5000438;28;93989;-38
2023/02/28 06:25:53;;;;;;;;;;;8.80;74.90;;;;;;4999560;28;94545;-38
2023/02/28 06:28:18;;;;;;;;;;;8.80;74.90;;;;;;5002969;28;92263;-38
2023/02/28 06:30:44;;;;;;;;;;;8.80;74.80;;;;;;4998514;28;95752;-38
2023/02/28 06:33:09;;;;;;;;;;;8.80;74.90;;;;;;4999727;28;92123;-38
2023/02/28 06:35:35;;;;;;;;;;;8.80;75.00;;;;;;4999663;28;93045;-38
2023/02/28 06:38:00;;;;;;;;;;;8.80;74.90;;;;;;4999363;28;93449;-38
2023/02/28 06:40:26;;;;;;;;;;;8.80;74.80;;;;;;4999556;28;92260;-38
2023/02/28 06:42:52;;;;;;;;;;;8.80;74.90;;;;;;4999739;28;92683;-38
2023/02/28 06:45:17;;;;;;;;;;;8.80;74.90;;;;;;4999117;28;94671;-38
2023/02/28 06:47:43;;;;;;;;;;;8.80;74.90;;;;;;4999923;28;91518;-38
2023/02/28 06:50:10;;;;;;;;;;;8.80;74.90;;;;;;5001929;28;92776;-38
2023/02/28 06:52:38;;;;;;;;;;;8.80;75.00;;;;;;4999310;28;92186;-38
2023/02/28 06:55:06;;;;;;;;;;;8.80;75.00;;;;;;4998879;28;93856;-38
2023/02/28 06:57:33;;;;;;;;;;;8.80;75.00;;;;;;4999005;28;93052;-38
2023/02/28 07:00:00;;;;;;;;;;;8.70;74.90;;;;;;4999191;28;92399;-38
2023/02/28 07:02:26;;;;;;;;;;;8.70;75.10;;;;;;4999419;28;94031;-38
2023/02/28 07:04:51;;;;;;;;;;;8.70;75.00;;;;;;4998692;28;94636;-38
2023/02/28 07:07:17;;;;;;;;;;;8.70;74.90;;;;;;4999032;28;92283;-38
2023/02/28 07:09:42;;;;;;;;;;;8.70;75.00;;;;;;4999502;28;92449;-38
2023/02/28 07:12:08;;;;;;;;;;;8.70;75.10;;;;;;5002217;28;93437;-38
2023/02/28 07:14:33;;;;;;;;;;;8.70;75.10;;;;;;4999110;28;93045;-38
2023/02/28 07:16:59;;;;;;;;;;;8.70;75.00;;;;;;4998544;28;94634;-38
2023/02/28 07:19:24;;;;;;;;;;;8.70;75.00;;;;;;4998206;28;93105;-38
2023/02/28 07:21:49;;;;;;;;;;;8.70;75.10;;;;;;4999349;28;93685;-38
2023/02/28 07:24:17;;;;;;;;;;;8.70;75.10;;;;;;4998733;28;93204;-38
2023/02/28 07:26:43;;;;;;;;;;;8.70;75.10;;;;;;4998955;28;92153;-38
2023/02/28 07:29:08;;;;;;;;;;;8.70;75.20;;;;;;4998959;28;93834;-38
2023/02/28 07:31:34;;;;;;;;;;;8.60;75.20;;;;;;4998300;28;94430;-38
2023/02/28 07:34:00;;;;;;;;;;;8.60;75.30;;;;;;5001850;28;92178;-38
2023/02/28 07:36:25;;;;;;;;;;;8.60;75.20;;;;;;4998497;28;93784;-38
2023/02/28 07:38:51;;;;;;;;;;;8.70;75.10;;;;;;4999054;28;92149;-38
2023/02/28 07:41:17;;;;;;;;;;;8.60;75.20;;;;;;4999218;28;92108;-38
2023/02/28 07:43:44;;;;;;;;;;;8.60;75.20;;;;;;4997760;28;94085;-38
2023/02/28 07:46:10;;;;;;;;;;;8.60;75.20;;;;;;4998710;28;91957;-38
2023/02/28 07:48:36;;;;;;;;;;;8.60;75.30;;;;;;4998795;28;93795;-38
2023/02/28 07:51:02;;;;;;;;;;;8.60;75.30;;;;;;4998205;28;94257;-38
2023/02/28 07:53:28;;;;;;;;;;;8.60;75.30;;;;;;5001762;28;92128;-38
2023/02/28 07:55:57;;;;;;;;;;;8.60;75.30;;;;;;4998485;28;92791;-38
2023/02/28 07:58:23;;;;;;;;;;;8.60;75.40;;;;;;4998715;28;92115;-38
2023/02/28 08:00:49;;;;;;;;;;;8.60;75.40;;;;;;4999209;28;93746;-38
2023/02/28 08:03:17;;;;;;;;;;;8.60;75.20;;;;;;4998063;28;93172;-38
2023/02/28 08:05:43;;;;;;;;;;;8.60;75.20;;;;;;4998019;28;92232;-38
2023/02/28 08:08:08;;;;;;;;;;;8.60;75.10;;;;;;4998324;28;92971;-38
2023/02/28 08:10:34;;;;;;;;;;;8.60;75.10;;;;;;4997956;28;94731;-38
2023/02/28 08:13:00;;;;;;;;;;;8.60;75.10;;;;;;4998329;28;92089;-38
2023/02/28 08:15:25;;;;;;;;;;;8.60;75.00;;;;;;5001320;28;92063;-38
2023/02/28 08:17:51;;;;;;;;;;;8.60;75.20;;;;;;4998354;28;92120;-38
2023/02/28 08:20:16;;;;;;;;;;;8.60;75.10;;;;;;4998111;28;94302;-38
2023/02/28 08:22:42;;;;;;;;;;;8.60;75.20;;;;;;4997753;28;94922;-38
2023/02/28 08:25:08;;;;;;;;;;;8.60;75.10;;;;;;4998760;28;91442;-38
2023/02/28 08:27:33;;;;;;;;;;;8.60;75.20;;;;;;4998311;28;92928;-38
2023/02/28 08:29:59;;;;;;;;;;;8.60;75.20;;;;;;4997319;28;94618;-38
2023/02/28 08:32:24;;;;;;;;;;;8.60;75.20;;;;;;4997978;28;93091;-38
2023/02/28 08:34:50;;;;;;;;;;;8.60;75.20;;;;;;5000040;28;93924;-38
2023/02/28 08:37:15;;;;;;;;;;;8.50;75.40;;;;;;5004265;28;94542;-38
2023/02/28 08:39:41;;;;;;;;;;;8.60;75.40;;;;;;5001815;28;92544;-38
2023/02/28 08:42:06;;;;;;;;;;;8.50;75.50;;;;;;5001064;28;94729;-38
2023/02/28 08:44:32;;;;;;;;;;;8.60;75.30;;;;;;5001534;28;92291;-38
2023/02/28 08:46:57;;;;;;;;;;;8.60;75.20;;;;;;5001351;28;93610;-38
2023/02/28 08:49:23;;;;;;;;;;;8.60;75.20;;;;;;5001688;28;92642;-38
2023/02/28 08:51:48;;;;;;;;;;;8.50;75.10;;;;;;5001458;28;92613;-38
2023/02/28 08:54:19;;;;;;;;;;;8.60;75.00;;;;;;5001326;28;94194;-38
2023/02/28 08:56:45;;;;;;;;;;;8.60;75.20;;;;;;5000276;28;96368;-38
2023/02/28 08:59:11;;;;;;;;;;;8.60;75.00;;;;;;5004362;28;92211;-38
2023/02/28 09:01:36;;;;;;;;;;;8.60;75.00;;;;;;5000598;28;94456;-38
2023/02/28 09:04:02;;;;;;;;;;;8.60;75.10;;;;;;5000729;28;92801;-38
2023/02/28 09:06:28;;;;;;;;;;;8.60;75.10;;;;;;5000734;28;93911;-38
2023/02/28 09:08:58;;;;;;;;;;;8.60;75.00;;;;;;5000736;28;94772;-38
2023/02/28 09:11:23;;;;;;;;;;;8.60;75.00;;;;;;5001228;28;92157;-38
2023/02/28 09:13:49;;;;;;;;;;;8.60;75.00;;;;;;5016860;28;95689;-38
2023/02/28 09:16:16;;;;;;;;;;;8.60;75.00;;;;;;5000320;28;94773;-38
2023/02/28 09:18:41;;;;;;;;;;;8.60;75.10;;;;;;5001059;28;92167;-38
2023/02/28 09:21:08;;;;;;;;;;;8.60;75.10;;;;;;5002770;28;93625;-38
2023/02/28 09:23:34;;;;;;;;;;;8.50;75.10;;;;;;5000871;28;92131;-38
2023/02/28 09:25:59;;;;;;;;;;;8.60;75.10;;;;;;5000841;28;93640;-38
2023/02/28 09:28:25;;;;;;;;;;;8.60;75.20;;;;;;5000398;28;94515;-37
2023/02/28 09:30:51;;;;;;;;;;;8.50;75.10;;;;;;5000608;28;92163;-38
2023/02/28 09:33:20;;;;;;;;;;;8.50;75.10;;;;;;5000521;28;92763;-38
2023/02/28 09:35:46;;;;;;;;;;;8.50;75.10;;;;;;4999948;28;94642;-38
2023/02/28 09:38:11;;;;;;;;;;;8.50;75.10;;;;;;5001065;28;91340;-38
2023/02/28 09:40:41;;;;;;;;;;;8.50;75.30;;;;;;5000904;28;92040;-38
2023/02/28 09:43:10;;;;;;;;;;;8.50;75.10;;;;;;5003214;28;94667;-38
2023/02/28 09:45:38;;;;;;;;;;;8.50;75.20;;;;;;4998780;28;93292;-38
2023/02/28 09:48:10;;;;;;;;;;;8.50;75.30;;;;;;4999775;28;94658;-38
2023/02/28 09:50:38;;;;;;;;;;;8.60;75.20;;;;;;5000686;28;92839;-38
2023/02/28 09:53:09;;;;;;;;;;;8.60;75.20;;;;;;5000443;28;92393;-38
2023/02/28 09:55:39;;;;;;;;;;;8.60;75.20;;;;;;4999953;28;94563;-38
2023/02/28 09:58:05;;;;;;;;;;;8.60;75.20;;;;;;5000375;28;92187;-38
2023/02/28 10:00:33;;;;;;;;;;;8.50;75.20;;;;;;5000531;28;92351;-38
2023/02/28 10:03:23;;;;;;;;;;;8.60;75.30;;;;;;5003445;28;93798;-38
2023/02/28 10:06:04;;;;;;;;;;;8.60;75.30;;;;;;4999777;28;93174;-38
2023/02/28 10:08:29;;;;;;;;;;;8.60;75.20;;;;;;4999656;28;94492;-38
2023/02/28 10:10:57;;;;;;;;;;;8.60;75.20;;;;;;4999782;28;93162;-38
2023/02/28 10:13:36;;;;;;;;;;;8.60;75.20;;;;;;5000186;28;92623;-38
2023/02/28 10:16:05;;;;;;;;;;;8.60;75.20;;;;;;4999837;28;94762;-38
2023/02/28 10:18:37;;;;;;;;;;;8.60;75.20;;;;;;5000082;28;92177;-38
2023/02/28 10:21:03;;;;;;;;;;;8.60;75.20;;;;;;4999926;28;93795;-38
2023/02/28 10:23:32;;;;;;;;;;;8.60;75.10;;;;;;4999395;28;94573;-38
2023/02/28 10:26:05;;;;;;;;;;;8.60;75.20;;;;;;5002859;28;92206;-38
2023/02/28 10:28:30;;;;;;;;;;;8.60;76.00;;;;;;5015208;28;94302;-38
2023/02/28 10:30:56;;;;;;;;;;;8.60;75.40;;;;;;4999717;28;92171;-38
2023/02/28 10:33:24;;;;;;;;;;;8.60;75.40;;;;;;4999719;28;93010;-38
2023/02/28 10:35:49;;;;;;;;;;;8.60;75.30;;;;;;4998493;28;95599;-38
2023/02/28 10:38:17;;;;;;;;;;;8.60;75.20;;;;;;4999369;28;92322;-38
2023/02/28 10:40:42;;;;;;;;;;;8.60;75.10;;;;;;4999762;28;93716;-38
2023/02/28 10:43:14;;;;;;;;;;;8.60;75.10;;;;;;4999181;28;94542;-38
2023/02/28 10:45:52;;;;;;;;;;;8.60;75.10;;;;;;4999916;28;92184;-38
2023/02/28 10:48:17;;;;;;;;;;;8.60;75.30;;;;;;5002489;28;92399;-38
2023/02/28 10:50:43;;;;;;;;;;;8.60;75.30;;;;;;4999132;28;91987;-38
2023/02/28 10:53:27;;;;;;;;;;;8.50;75.30;;;;;;4999688;28;93883;-38
2023/02/28 10:56:16;;;;;;;;;;;8.60;75.50;;;;;;4998867;28;94636;-38
2023/02/28 10:58:47;;;;;;;;;;;8.50;75.60;;;;;;4993408;28;92175;-38
2023/02/28 11:01:14;;;;;;;;;;;8.50;75.60;;;;;;4998497;28;93785;-38
2023/02/28 11:03:39;;;;;;;;;;;8.50;75.80;;;;;;4998913;28;93027;-38
2023/02/28 11:06:06;;;;;;;;;;;8.50;75.60;;;;;;4998854;28;92250;-38
2023/02/28 11:08:32;;;;;;;;;;;8.50;75.60;;;;;;4999476;28;92651;-38
2023/02/28 11:10:59;;;;;;;;;;;8.50;75.60;;;;;;5001675;28;93507;-38
2023/02/28 11:13:27;;;;;;;;;;;8.60;75.70;;;;;;4999067;28;93907;-38
2023/02/28 11:15:54;;;;;;;;;;;8.60;75.50;;;;;;4998261;28;94464;-38
2023/02/28 11:18:27;;;;;;;;;;;8.60;75.50;;;;;;4999644;28;91480;-38
2023/02/28 11:20:53;;;;;;;;;;;8.60;75.40;;;;;;4999245;28;93072;-38
2023/02/28 11:23:20;;;;;;;;;;;8.60;75.30;;;;;;4998572;28;94744;-38
2023/02/28 11:25:48;;;;;;;;;;;8.60;75.40;;;;;;4998396;28;93078;-38
2023/02/28 11:28:25;;;;;;;;;;;8.60;75.30;;;;;;4999018;28;95025;-39
2023/02/28 11:30:59;;;;;;;;;;;8.60;75.40;;;;;;4998210;28;94393;-37
2023/02/28 11:33:29;;;;;;;;;;;8.60;75.40;;;;;;5001684;28;92019;-38
2023/02/28 11:36:01;;;;;;;;;;;8.60;75.40;;;;;;4998428;28;94972;-38
2023/02/28 11:38:26;;;;;;;;;;;8.60;75.40;;;;;;4999275;28;91996;-38
2023/02/28 11:40:55;;;;;;;;;;;8.70;75.40;;;;;;4998851;28;93653;-38
2023/02/28 11:43:53;;;;;;;;;;;8.70;75.60;;;;;;4998852;28;93513;-38
2023/02/28 11:46:35;;;;;;;;;;;8.60;75.70;;;;;;4974899;28;92347;-38
2023/02/28 11:49:04;;;;;;;;;;;8.70;75.40;;;;;;4999039;28;92304;-38
2023/02/28 11:51:34;;;;;;;;;;;8.70;75.60;;;;;;4997721;28;94142;-38
2023/02/28 11:53:59;;;;;;;;;;;8.70;75.80;;;;;;4998751;28;92181;-38
2023/02/28 11:56:28;;;;;;;;;;;8.70;75.80;;;;;;5001485;28;92266;-38
2023/02/28 11:59:01;;;;;;;;;;;8.60;75.70;;;;;;4998615;28;92203;-38
2023/02/28 12:01:27;;;;;;;;;;;8.60;75.80;;;;;;4998849;28;92368;-38
2023/02/28 12:04:19;;;;;;;;;;;8.70;75.80;;;;;;4997951;28;94661;-38
2023/02/28 12:07:09;;;;;;;;;;;8.70;75.90;;;;;;4995740;28;92500;-38
2023/02/28 12:09:41;;;;;;;;;;;8.70;75.90;;;;;;5016430;28;95440;-38
2023/02/28 12:12:14;;;;;;;;;;;8.70;75.80;;;;;;5001436;28;94556;-38
2023/02/28 12:14:42;;;;;;;;;;;8.70;76.10;;;;;;5002090;28;92226;-38
2023/02/28 12:17:26;;;;;;;;;;;8.70;75.90;;;;;;5004086;28;93212;-38
2023/02/28 12:20:03;;;;;;;;;;;8.70;75.80;;;;;;5001704;28;92246;-38
2023/02/28 12:22:37;;;;;;;;;;;8.70;75.90;;;;;;5001916;28;94009;-38
2023/02/28 12:25:05;;;;;;;;;;;8.70;75.90;;;;;;5001182;28;94307;-38
2023/02/28 12:27:32;;;;;;;;;;;8.80;75.80;;;;;;5001560;28;92149;-37
2023/02/28 12:29:58;;;;;;;;;;;8.80;75.80;;;;;;5002017;28;92567;-38
2023/02/28 12:32:32;;;;;;;;;;;8.80;75.90;;;;;;5000965;28;94742;-38
2023/02/28 12:35:00;;;;;;;;;;;8.80;75.80;;;;;;5002121;28;91434;-38
2023/02/28 12:37:29;;;;;;;;;;;8.80;75.80;;;;;;5001277;28;93437;-39
2023/02/28 12:39:58;;;;;;;;;;;8.80;75.80;;;;;;5003971;28;94639;-38
2023/02/28 12:42:28;;;;;;;;;;;8.80;75.80;;;;;;5000973;28;93779;-38
2023/02/28 12:44:59;;;;;;;;;;;8.90;75.90;;;;;;5000799;28;94418;-38
2023/02/28 12:47:24;;;;;;;;;;;8.90;75.70;;;;;;5001392;28;92131;-38
2023/02/28 12:49:54;;;;;;;;;;;8.90;75.90;;;;;;5001586;28;93664;-38
2023/02/28 12:52:28;;;;;;;;;;;8.90;75.70;;;;;;5000838;28;94715;-38
2023/02/28 12:55:05;;;;;;;;;;;8.90;75.90;;;;;;5001255;28;92246;-38
2023/02/28 12:57:37;;;;;;;;;;;8.90;75.90;;;;;;5001233;28;94403;-38
2023/02/28 13:00:09;;;;;;;;;;;8.90;76.10;;;;;;5001292;28;93502;-38
2023/02/28 13:02:40;;;;;;;;;;;8.90;75.90;;;;;;5004133;28;92100;-38
2023/02/28 13:05:07;;;;;;;;;;;8.90;76.00;;;;;;5000635;28;94790;-38
2023/02/28 13:07:51;;;;;;;;;;;8.90;75.90;;;;;;5000132;28;93129;-38
2023/02/28 13:10:18;;;;;;;;;;;8.90;75.90;;;;;;5001045;28;94813;-38
2023/02/28 13:12:48;;;;;;;;;;;8.90;75.90;;;;;;5000583;28;93510;-38
2023/02/28 13:15:21;;;;;;;;;;;8.90;75.80;;;;;;5000983;28;91801;-38
2023/02/28 13:17:53;;;;;;;;;;;8.90;76.20;;;;;;5000972;28;93830;-38
2023/02/28 13:20:23;;;;;;;;;;;8.90;75.90;;;;;;5000547;28;93179;-38
2023/02/28 13:22:50;;;;;;;;;;;8.90;76.00;;;;;;5000997;28;92158;-38
2023/02/28 13:25:22;;;;;;;;;;;8.90;76.10;;;;;;5003853;28;94344;-38
2023/02/28 13:27:56;;;;;;;;;;;9.00;76.00;;;;;;5000877;28;92046;-38
2023/02/28 13:30:40;;;;;;;;;;;9.00;76.20;;;;;;5016294;28;95418;-38
2023/02/28 13:33:25;;;;;;;;;;;8.90;76.20;;;;;;4999412;28;95363;-38
2023/02/28 13:36:09;;;;;;;;;;;9.00;76.60;;;;;;5000679;28;92231;-38
2023/02/28 13:38:36;;;;;;;;;;;9.00;76.20;;;;;;5000710;28;93758;-38
2023/02/28 13:41:20;;;;;;;;;;;9.00;76.30;;;;;;5000179;28;94481;-38
2023/02/28 13:44:03;;;;;;;;;;;9.10;76.50;;;;;;5000444;28;92273;-38
2023/02/28 13:46:29;;;;;;;;;;;9.00;76.20;;;;;;5000332;28;93606;-37
2023/02/28 13:48:55;;;;;;;;;;;9.00;76.50;;;;;;5003001;28;93042;-38
2023/02/28 13:51:40;;;;;;;;;;;9.10;76.70;;;;;;5001155;28;93775;-38
2023/02/28 13:54:14;;;;;;;;;;;9.10;76.50;;;;;;4999756;28;94444;-38
2023/02/28 13:56:51;;;;;;;;;;;9.00;76.40;;;;;;5000387;28;92131;-38
2023/02/28 13:59:19;;;;;;;;;;;9.00;76.50;;;;;;5000108;28;93049;-38
2023/02/28 14:01:45;;;;;;;;;;;9.10;76.40;;;;;;4999688;28;93665;-38
2023/02/28 14:04:10;;;;;;;;;;;9.00;76.50;;;;;;5000574;28;92674;-38
2023/02/28 14:06:36;;;;;;;;;;;9.00;76.60;;;;;;5000201;28;92445;-38
2023/02/28 14:09:03;;;;;;;;;;;9.00;76.80;;;;;;4999663;28;94846;-38
2023/02/28 14:11:37;;;;;;;;;;;9.10;77.00;;;;;;5002885;28;92372;-38
2023/02/28 14:14:04;;;;;;;;;;;9.10;76.70;;;;;;4999435;28;94630;-38
2023/02/28 14:16:40;;;;;;;;;;;9.10;76.90;;;;;;5000865;28;91184;-38
2023/02/28 14:19:12;;;;;;;;;;;9.10;76.90;;;;;;5000098;28;93361;-38
2023/02/28 14:21:41;;;;;;;;;;;9.10;76.90;;;;;;4999597;28;94691;-38
2023/02/28 14:24:18;;;;;;;;;;;9.10;76.80;;;;;;4999103;28;92891;-38
2023/02/28 14:27:02;;;;;;;;;;;9.10;77.00;;;;;;4999885;28;93948;-38
2023/02/28 14:29:34;;;;;;;;;;;9.10;76.80;;;;;;4999239;28;95191;-38
2023/02/28 14:32:02;;;;;;;;;;;9.10;77.00;;;;;;5002142;28;92346;-38
2023/02/28 14:34:48;;;;;;;;;;;9.20;76.90;;;;;;4998999;28;94855;-38
2023/02/28 14:37:16;;;;;;;;;;;9.20;77.00;;;;;;4999653;28;92202;-38